Pioneer, CA (95644)

1:15 AM PST on November 28, 2014 (GMT -0800)
Bear Valley (7201 ft) | Change Station
CLOSE
Current Station
Personal Weather Station
Location: Bear Valley, CA
Elevation: 7333 ft
Nearby Weather Stations
Active Advisory: Special Statement Active Notice: Record Report

Elev 7333 ft 38.47 °N, 120.05 °W | Updated 7 minutes ago

Clear
Clear
44.1 °F
Feels Like 44 °F
N
0.0
Wind Variable Wind from NW
Gusts 0.0 mph

Today
High -- | Low -- °F
--% Chance of Precip.
Yesterday
High -- | Low -- °F
Precip. -- in
6:56 AM 4:40 PM
Waxing Crescent, 38% visible
Pressure 30.00 in
Visibility 10.0 miles
Clouds Clear
Windchill 44 °F
Dew Point 23 °F
Humidity 43%
Rainfall 0.00 in
Snow Depth Not available.
UV 0 out of 12
Pollen 1.90 out of 12
Air Quality Not available.
Flu Activity Not available.
METAR KTVL 280853Z AUTO 17009G16KT 130V200 10SM CLR 11/M12 A3015 RMK AO2 SLP159 T01111122 58011

More Conditions Fewer Conditions

Pressure 30.00 in
Visibility 10.0 miles
Clouds Clear
Windchill 44 °F
Dew Point 23 °F
Humidity 43%
Rainfall 0.00 in
Snow Depth Not available.
UV 0 out of 12
Pollen 1.90 out of 12
Air Quality Not available.
Flu Activity Not available.
METAR KTVL 280853Z AUTO 17009G16KT 130V200 10SM CLR 11/M12 A3015 RMK AO2 SLP159 T01111122 58011

More Conditions Fewer Conditions

10-Day Weather Forecast

Almanac

Astronomy

Nov. 28, 2014 Rise Set
Actual Time
Civil Twilight
Nautical Twilight
Astronomical Twilight
Moon
Length of Visible Light
Length of Day
Tomorrow will be .
, % of the Moon is Illuminated

Today's Extremes

State Highs State Lows

Community

WunderPhotos

Upload Photos

1,774,190 photos uploaded!

WunderBlogs® & News

Nearby

Air Quality

  Air Quality AQ Index Pollutant
Not available.

Snow Depth

Station Depth Elevation

Earthquake Activity

City Distance Mag. Time & Date
Minimum magnitude displayed is 2.5.

Coastal Water Temperatures

Place Temperature

Nearby Weather Stations